sensor_id;sensor_type;location;lat;lon;timestamp;temperature;humidity
20911;DHT22;10615;42.702;23.314;2023-07-28T00:00:37;16.90;65.50
20911;DHT22;10615;42.702;23.314;2023-07-28T00:01:38;16.90;65.50
20911;DHT22;10615;42.702;23.314;2023-07-28T00:02:39;17.00;65.70
20911;DHT22;10615;42.702;23.314;2023-07-28T00:03:39;16.90;65.70
20911;DHT22;10615;42.702;23.314;2023-07-28T00:04:40;17.00;65.60
20911;DHT22;10615;42.702;23.314;2023-07-28T00:05:40;17.00;65.60
20911;DHT22;10615;42.702;23.314;2023-07-28T00:06:41;17.00;65.60
20911;DHT22;10615;42.702;23.314;2023-07-28T00:07:42;17.00;65.60
20911;DHT22;10615;42.702;23.314;2023-07-28T00:08:42;17.00;65.60
20911;DHT22;10615;42.702;23.314;2023-07-28T00:09:43;17.00;65.50
20911;DHT22;10615;42.702;23.314;2023-07-28T00:10:44;17.00;65.50
20911;DHT22;10615;42.702;23.314;2023-07-28T00:11:45;17.00;65.40
20911;DHT22;10615;42.702;23.314;2023-07-28T00:12:45;17.00;65.30
20911;DHT22;10615;42.702;23.314;2023-07-28T00:13:46;17.00;65.30
20911;DHT22;10615;42.702;23.314;2023-07-28T00:14:47;17.00;65.20
20911;DHT22;10615;42.702;23.314;2023-07-28T00:15:47;17.00;65.30
20911;DHT22;10615;42.702;23.314;2023-07-28T00:16:48;16.90;65.40
20911;DHT22;10615;42.702;23.314;2023-07-28T00:17:48;16.90;65.60
20911;DHT22;10615;42.702;23.314;2023-07-28T00:18:49;16.90;65.70
20911;DHT22;10615;42.702;23.314;2023-07-28T00:19:50;16.80;65.70
20911;DHT22;10615;42.702;23.314;2023-07-28T00:20:51;16.80;65.80
20911;DHT22;10615;42.702;23.314;2023-07-28T00:21:51;16.80;66.00
20911;DHT22;10615;42.702;23.314;2023-07-28T00:22:52;16.80;66.00
20911;DHT22;10615;42.702;23.314;2023-07-28T00:23:53;16.70;66.00
20911;DHT22;10615;42.702;23.314;2023-07-28T00:24:54;16.70;66.00
20911;DHT22;10615;42.702;23.314;2023-07-28T00:25:54;16.70;66.20
20911;DHT22;10615;42.702;23.314;2023-07-28T00:26:55;16.70;66.30
20911;DHT22;10615;42.702;23.314;2023-07-28T00:27:55;16.70;66.60
20911;DHT22;10615;42.702;23.314;2023-07-28T00:28:56;16.60;66.60
20911;DHT22;10615;42.702;23.314;2023-07-28T00:29:58;16.60;66.70
20911;DHT22;10615;42.702;23.314;2023-07-28T00:30:59;16.50;66.90
20911;DHT22;10615;42.702;23.314;2023-07-28T00:31:59;16.40;67.20
20911;DHT22;10615;42.702;23.314;2023-07-28T00:33:00;16.30;67.50
20911;DHT22;10615;42.702;23.314;2023-07-28T00:34:02;16.30;67.80
20911;DHT22;10615;42.702;23.314;2023-07-28T00:35:03;16.30;68.10
20911;DHT22;10615;42.702;23.314;2023-07-28T00:36:04;16.20;68.10
20911;DHT22;10615;42.702;23.314;2023-07-28T00:37:05;16.20;68.40
20911;DHT22;10615;42.702;23.314;2023-07-28T00:38:05;16.20;69.40
20911;DHT22;10615;42.702;23.314;2023-07-28T00:39:06;16.20;68.60
20911;DHT22;10615;42.702;23.314;2023-07-28T00:40:07;16.20;68.80
20911;DHT22;10615;42.702;23.314;2023-07-28T00:41:08;16.20;69.10
20911;DHT22;10615;42.702;23.314;2023-07-28T00:42:08;16.20;69.10
20911;DHT22;10615;42.702;23.314;2023-07-28T00:43:10;16.20;68.90
20911;DHT22;10615;42.702;23.314;2023-07-28T00:44:10;16.10;68.90
20911;DHT22;10615;42.702;23.314;2023-07-28T00:45:11;16.00;69.00
20911;DHT22;10615;42.702;23.314;2023-07-28T00:46:12;15.90;69.10
20911;DHT22;10615;42.702;23.314;2023-07-28T00:47:13;15.90;69.30
20911;DHT22;10615;42.702;23.314;2023-07-28T00:48:14;15.80;69.50
20911;DHT22;10615;42.702;23.314;2023-07-28T00:49:16;15.70;69.80
20911;DHT22;10615;42.702;23.314;2023-07-28T00:50:16;15.70;70.00
20911;DHT22;10615;42.702;23.314;2023-07-28T00:51:17;15.70;70.20
20911;DHT22;10615;42.702;23.314;2023-07-28T00:52:18;15.70;70.40
20911;DHT22;10615;42.702;23.314;2023-07-28T00:53:20;15.60;70.60
20911;DHT22;10615;42.702;23.314;2023-07-28T00:54:21;15.50;70.70
20911;DHT22;10615;42.702;23.314;2023-07-28T00:55:22;15.50;70.90
20911;DHT22;10615;42.702;23.314;2023-07-28T00:56:23;15.50;71.00
20911;DHT22;10615;42.702;23.314;2023-07-28T00:57:24;15.50;71.20
20911;DHT22;10615;42.702;23.314;2023-07-28T00:58:25;15.50;71.30
20911;DHT22;10615;42.702;23.314;2023-07-28T00:59:27;15.50;72.30
20911;DHT22;10615;42.702;23.314;2023-07-28T01:00:27;15.50;71.50
20911;DHT22;10615;42.702;23.314;2023-07-28T01:01:28;15.50;71.70
20911;DHT22;10615;42.702;23.314;2023-07-28T01:02:29;15.50;71.70
20911;DHT22;10615;42.702;23.314;2023-07-28T01:03:29;15.40;71.70
20911;DHT22;10615;42.702;23.314;2023-07-28T01:04:31;15.50;71.80
20911;DHT22;10615;42.702;23.314;2023-07-28T01:07:17;15.40;71.70
20911;DHT22;10615;42.702;23.314;2023-07-28T01:08:41;15.30;71.90
20911;DHT22;10615;42.702;23.314;2023-07-28T01:09:57;15.20;72.20
20911;DHT22;10615;42.702;23.314;2023-07-28T01:11:01;15.10;72.50
20911;DHT22;10615;42.702;23.314;2023-07-28T01:12:07;15.10;72.80
20911;DHT22;10615;42.702;23.314;2023-07-28T01:13:09;15.10;73.00
20911;DHT22;10615;42.702;23.314;2023-07-28T01:14:10;15.00;73.00
20911;DHT22;10615;42.702;23.314;2023-07-28T01:15:11;15.00;73.20
20911;DHT22;10615;42.702;23.314;2023-07-28T01:16:11;15.00;73.40
20911;DHT22;10615;42.702;23.314;2023-07-28T01:17:12;15.00;73.60
20911;DHT22;10615;42.702;23.314;2023-07-28T01:18:13;14.80;73.70
20911;DHT22;10615;42.702;23.314;2023-07-28T01:19:17;15.00;73.90
20911;DHT22;10615;42.702;23.314;2023-07-28T01:20:23;15.00;74.10
20911;DHT22;10615;42.702;23.314;2023-07-28T01:21:30;15.00;74.30
20911;DHT22;10615;42.702;23.314;2023-07-28T01:24:09;15.00;74.40
20911;DHT22;10615;42.702;23.314;2023-07-28T01:26:50;15.10;74.20
20911;DHT22;10615;42.702;23.314;2023-07-28T01:27:52;15.20;74.00
20911;DHT22;10615;42.702;23.314;2023-07-28T01:28:54;15.20;73.80
20911;DHT22;10615;42.702;23.314;2023-07-28T01:29:55;15.30;73.70
20911;DHT22;10615;42.702;23.314;2023-07-28T01:30:56;15.30;73.40
20911;DHT22;10615;42.702;23.314;2023-07-28T01:31:59;15.30;73.30
20911;DHT22;10615;42.702;23.314;2023-07-28T01:33:00;15.30;73.10
20911;DHT22;10615;42.702;23.314;2023-07-28T01:34:01;15.30;73.10
20911;DHT22;10615;42.702;23.314;2023-07-28T01:35:03;15.20;73.20
20911;DHT22;10615;42.702;23.314;2023-07-28T01:36:04;15.10;73.50
20911;DHT22;10615;42.702;23.314;2023-07-28T01:37:05;15.10;73.70
20911;DHT22;10615;42.702;23.314;2023-07-28T01:38:05;15.10;73.80
20911;DHT22;10615;42.702;23.314;2023-07-28T01:39:06;15.00;73.90
20911;DHT22;10615;42.702;23.314;2023-07-28T01:40:07;14.90;74.10
20911;DHT22;10615;42.702;23.314;2023-07-28T01:41:09;14.90;74.30
20911;DHT22;10615;42.702;23.314;2023-07-28T01:42:09;14.90;74.60
20911;DHT22;10615;42.702;23.314;2023-07-28T01:43:10;14.80;74.80
20911;DHT22;10615;42.702;23.314;2023-07-28T01:44:11;14.80;74.90
20911;DHT22;10615;42.702;23.314;2023-07-28T01:45:11;14.80;75.10
20911;DHT22;10615;42.702;23.314;2023-07-28T01:46:12;14.70;75.20
20911;DHT22;10615;42.702;23.314;2023-07-28T01:47:13;14.70;75.40
20911;DHT22;10615;42.702;23.314;2023-07-28T01:48:14;14.70;75.30
20911;DHT22;10615;42.702;23.314;2023-07-28T01:49:15;14.70;75.40
20911;DHT22;10615;42.702;23.314;2023-07-28T01:50:15;14.60;75.60
20911;DHT22;10615;42.702;23.314;2023-07-28T01:51:16;14.60;75.70
20911;DHT22;10615;42.702;23.314;2023-07-28T01:52:17;14.60;75.80
20911;DHT22;10615;42.702;23.314;2023-07-28T01:53:17;14.50;75.90
20911;DHT22;10615;42.702;23.314;2023-07-28T01:54:18;14.50;76.10
20911;DHT22;10615;42.702;23.314;2023-07-28T01:55:19;14.50;76.20
20911;DHT22;10615;42.702;23.314;2023-07-28T01:56:19;14.50;76.20
20911;DHT22;10615;42.702;23.314;2023-07-28T01:57:20;14.50;76.30
20911;DHT22;10615;42.702;23.314;2023-07-28T01:58:21;14.50;76.40
20911;DHT22;10615;42.702;23.314;2023-07-28T01:59:21;14.50;76.30
20911;DHT22;10615;42.702;23.314;2023-07-28T02:00:22;14.50;76.30
20911;DHT22;10615;42.702;23.314;2023-07-28T02:01:23;14.50;76.30
20911;DHT22;10615;42.702;23.314;2023-07-28T02:02:24;14.50;76.40
20911;DHT22;10615;42.702;23.314;2023-07-28T02:03:25;14.50;76.40
20911;DHT22;10615;42.702;23.314;2023-07-28T02:04:25;14.60;76.30
20911;DHT22;10615;42.702;23.314;2023-07-28T02:05:26;14.60;76.00
20911;DHT22;10615;42.702;23.314;2023-07-28T02:06:27;14.60;75.70
20911;DHT22;10615;42.702;23.314;2023-07-28T02:07:28;14.60;75.60
20911;DHT22;10615;42.702;23.314;2023-07-28T02:08:29;14.60;75.50
20911;DHT22;10615;42.702;23.314;2023-07-28T02:09:30;14.60;75.50
20911;DHT22;10615;42.702;23.314;2023-07-28T02:10:30;14.60;75.40
20911;DHT22;10615;42.702;23.314;2023-07-28T02:11:31;14.60;75.30
20911;DHT22;10615;42.702;23.314;2023-07-28T02:12:32;14.60;75.50
20911;DHT22;10615;42.702;23.314;2023-07-28T02:13:32;14.60;75.50
20911;DHT22;10615;42.702;23.314;2023-07-28T02:14:33;14.50;75.50
20911;DHT22;10615;42.702;23.314;2023-07-28T02:15:34;14.50;75.60
20911;DHT22;10615;42.702;23.314;2023-07-28T02:16:34;14.50;75.90
20911;DHT22;10615;42.702;23.314;2023-07-28T02:17:35;14.50;76.20
20911;DHT22;10615;42.702;23.314;2023-07-28T02:18:36;14.50;76.20
20911;DHT22;10615;42.702;23.314;2023-07-28T02:19:37;14.50;76.30
20911;DHT22;10615;42.702;23.314;2023-07-28T02:20:37;14.60;76.30
20911;DHT22;10615;42.702;23.314;2023-07-28T02:21:39;14.50;76.40
20911;DHT22;10615;42.702;23.314;2023-07-28T02:22:40;14.60;76.30
20911;DHT22;10615;42.702;23.314;2023-07-28T02:23:41;14.60;76.30
20911;DHT22;10615;42.702;23.314;2023-07-28T02:24:41;14.50;76.20
20911;DHT22;10615;42.702;23.314;2023-07-28T02:25:42;14.50;76.30
20911;DHT22;10615;42.702;23.314;2023-07-28T02:26:43;14.50;76.40
20911;DHT22;10615;42.702;23.314;2023-07-28T02:27:43;14.60;76.40
20911;DHT22;10615;42.702;23.314;2023-07-28T02:28:44;14.60;76.30
20911;DHT22;10615;42.702;23.314;2023-07-28T02:29:45;14.60;76.30
20911;DHT22;10615;42.702;23.314;2023-07-28T02:30:46;14.60;76.30
20911;DHT22;10615;42.702;23.314;2023-07-28T02:31:46;14.60;76.30
20911;DHT22;10615;42.702;23.314;2023-07-28T02:32:47;14.60;76.20
20911;DHT22;10615;42.702;23.314;2023-07-28T02:33:48;14.60;76.10
20911;DHT22;10615;42.702;23.314;2023-07-28T02:34:49;14.60;76.00
20911;DHT22;10615;42.702;23.314;2023-07-28T02:35:49;14.60;76.00
20911;DHT22;10615;42.702;23.314;2023-07-28T02:36:51;14.60;76.00
20911;DHT22;10615;42.702;23.314;2023-07-28T02:37:51;14.60;76.00
20911;DHT22;10615;42.702;23.314;2023-07-28T02:38:52;14.60;76.00
20911;DHT22;10615;42.702;23.314;2023-07-28T02:39:52;14.60;76.20
20911;DHT22;10615;42.702;23.314;2023-07-28T02:40:53;14.60;77.10
20911;DHT22;10615;42.702;23.314;2023-07-28T02:41:54;14.60;76.30
20911;DHT22;10615;42.702;23.314;2023-07-28T02:42:55;14.60;76.30
20911;DHT22;10615;42.702;23.314;2023-07-28T02:43:57;14.60;76.40
20911;DHT22;10615;42.702;23.314;2023-07-28T02:44:58;14.70;76.50
20911;DHT22;10615;42.702;23.314;2023-07-28T02:45:59;14.60;76.30
20911;DHT22;10615;42.702;23.314;2023-07-28T02:47:00;14.70;76.40
20911;DHT22;10615;42.702;23.314;2023-07-28T02:48:01;14.70;76.30
20911;DHT22;10615;42.702;23.314;2023-07-28T02:49:01;14.70;76.30
20911;DHT22;10615;42.702;23.314;2023-07-28T02:50:04;14.70;76.10
20911;DHT22;10615;42.702;23.314;2023-07-28T02:51:05;14.70;76.00
20911;DHT22;10615;42.702;23.314;2023-07-28T02:52:06;14.70;76.00
20911;DHT22;10615;42.702;23.314;2023-07-28T02:53:07;14.60;76.00
20911;DHT22;10615;42.702;23.314;2023-07-28T02:54:07;14.60;76.10
20911;DHT22;10615;42.702;23.314;2023-07-28T02:55:08;14.60;76.20
20911;DHT22;10615;42.702;23.314;2023-07-28T02:56:09;14.60;76.20
20911;DHT22;10615;42.702;23.314;2023-07-28T02:57:09;14.60;76.20
20911;DHT22;10615;42.702;23.314;2023-07-28T02:58:11;14.60;76.30
20911;DHT22;10615;42.702;23.314;2023-07-28T02:59:11;14.60;76.30
20911;DHT22;10615;42.702;23.314;2023-07-28T03:00:13;14.70;76.30
20911;DHT22;10615;42.702;23.314;2023-07-28T03:01:14;14.70;76.10
20911;DHT22;10615;42.702;23.314;2023-07-28T03:02:15;14.70;75.80
20911;DHT22;10615;42.702;23.314;2023-07-28T03:03:16;14.70;75.80
20911;DHT22;10615;42.702;23.314;2023-07-28T03:04:17;14.70;75.70
20911;DHT22;10615;42.702;23.314;2023-07-28T03:05:18;14.60;75.60
20911;DHT22;10615;42.702;23.314;2023-07-28T03:06:18;14.60;75.70
20911;DHT22;10615;42.702;23.314;2023-07-28T03:07:19;14.70;75.80
20911;DHT22;10615;42.702;23.314;2023-07-28T03:08:20;14.70;76.00
20911;DHT22;10615;42.702;23.314;2023-07-28T03:09:21;14.70;76.00
20911;DHT22;10615;42.702;23.314;2023-07-28T03:10:22;14.70;76.00
20911;DHT22;10615;42.702;23.314;2023-07-28T03:11:22;14.70;76.00
20911;DHT22;10615;42.702;23.314;2023-07-28T03:12:23;14.70;76.00
20911;DHT22;10615;42.702;23.314;2023-07-28T03:13:24;14.70;76.20
20911;DHT22;10615;42.702;23.314;2023-07-28T03:14:25;14.70;76.10
20911;DHT22;10615;42.702;23.314;2023-07-28T03:15:25;14.70;76.10
20911;DHT22;10615;42.702;23.314;2023-07-28T03:16:26;14.70;76.00
20911;DHT22;10615;42.702;23.314;2023-07-28T03:17:27;14.70;75.90
20911;DHT22;10615;42.702;23.314;2023-07-28T03:18:27;14.70;76.00
20911;DHT22;10615;42.702;23.314;2023-07-28T03:19:28;14.70;75.90
20911;DHT22;10615;42.702;23.314;2023-07-28T03:20:29;14.70;76.90
20911;DHT22;10615;42.702;23.314;2023-07-28T03:21:30;14.60;76.00
20911;DHT22;10615;42.702;23.314;2023-07-28T03:22:32;14.60;76.00
20911;DHT22;10615;42.702;23.314;2023-07-28T03:23:32;14.60;76.00
20911;DHT22;10615;42.702;23.314;2023-07-28T03:24:33;14.60;76.00
20911;DHT22;10615;42.702;23.314;2023-07-28T03:25:34;14.70;76.00
20911;DHT22;10615;42.702;23.314;2023-07-28T03:26:34;14.60;75.90
20911;DHT22;10615;42.702;23.314;2023-07-28T03:27:35;14.70;76.00
20911;DHT22;10615;42.702;23.314;2023-07-28T03:28:36;14.70;76.00
20911;DHT22;10615;42.702;23.314;2023-07-28T03:29:36;14.70;75.80
20911;DHT22;10615;42.702;23.314;2023-07-28T03:30:37;14.80;75.70
20911;DHT22;10615;42.702;23.314;2023-07-28T03:31:38;14.80;75.70
20911;DHT22;10615;42.702;23.314;2023-07-28T03:32:38;14.80;75.70
20911;DHT22;10615;42.702;23.314;2023-07-28T03:33:39;14.90;75.50
20911;DHT22;10615;42.702;23.314;2023-07-28T03:34:40;15.00;75.50
20911;DHT22;10615;42.702;23.314;2023-07-28T03:35:40;15.00;75.20
20911;DHT22;10615;42.702;23.314;2023-07-28T03:36:41;15.00;75.00
20911;DHT22;10615;42.702;23.314;2023-07-28T03:37:42;15.10;75.00
20911;DHT22;10615;42.702;23.314;2023-07-28T03:38:42;15.20;74.80
20911;DHT22;10615;42.702;23.314;2023-07-28T03:39:43;15.30;74.60
20911;DHT22;10615;42.702;23.314;2023-07-28T03:40:44;15.30;74.30
20911;DHT22;10615;42.702;23.314;2023-07-28T03:41:45;15.40;74.10
20911;DHT22;10615;42.702;23.314;2023-07-28T03:42:46;15.40;74.00
20911;DHT22;10615;42.702;23.314;2023-07-28T03:43:47;15.50;73.70
20911;DHT22;10615;42.702;23.314;2023-07-28T03:44:48;15.60;73.30
20911;DHT22;10615;42.702;23.314;2023-07-28T03:45:48;15.70;73.10
20911;DHT22;10615;42.702;23.314;2023-07-28T03:46:49;15.80;72.80
20911;DHT22;10615;42.702;23.314;2023-07-28T03:47:50;15.90;72.50
20911;DHT22;10615;42.702;23.314;2023-07-28T03:48:50;16.00;72.10
20911;DHT22;10615;42.702;23.314;2023-07-28T03:49:51;16.20;71.80
20911;DHT22;10615;42.702;23.314;2023-07-28T03:50:52;16.30;71.40
20911;DHT22;10615;42.702;23.314;2023-07-28T03:51:52;16.50;71.20
20911;DHT22;10615;42.702;23.314;2023-07-28T03:52:53;16.70;70.70
20911;DHT22;10615;42.702;23.314;2023-07-28T03:53:54;16.90;70.10
20911;DHT22;10615;42.702;23.314;2023-07-28T03:54:55;17.10;69.40
20911;DHT22;10615;42.702;23.314;2023-07-28T03:55:55;17.20;68.60
20911;DHT22;10615;42.702;23.314;2023-07-28T03:56:58;17.30;67.90
20911;DHT22;10615;42.702;23.314;2023-07-28T03:57:59;17.50;67.40
20911;DHT22;10615;42.702;23.314;2023-07-28T03:58:59;17.60;66.80
20911;DHT22;10615;42.702;23.314;2023-07-28T04:00:00;17.70;66.50
20911;DHT22;10615;42.702;23.314;2023-07-28T04:01:01;17.90;66.20
20911;DHT22;10615;42.702;23.314;2023-07-28T04:02:01;18.10;65.70
20911;DHT22;10615;42.702;23.314;2023-07-28T04:03:02;18.20;65.00
20911;DHT22;10615;42.702;23.314;2023-07-28T04:04:03;18.20;64.30
20911;DHT22;10615;42.702;23.314;2023-07-28T04:05:04;18.20;63.80
20911;DHT22;10615;42.702;23.314;2023-07-28T04:06:10;18.20;63.60
20911;DHT22;10615;42.702;23.314;2023-07-28T04:07:11;18.30;63.60
20911;DHT22;10615;42.702;23.314;2023-07-28T04:08:12;18.40;63.40
20911;DHT22;10615;42.702;23.314;2023-07-28T04:09:15;18.40;63.20
20911;DHT22;10615;42.702;23.314;2023-07-28T04:10:16;18.50;62.80
20911;DHT22;10615;42.702;23.314;2023-07-28T04:11:17;18.60;62.80
20911;DHT22;10615;42.702;23.314;2023-07-28T04:12:18;18.80;62.50
20911;DHT22;10615;42.702;23.314;2023-07-28T04:13:18;19.00;62.10
20911;DHT22;10615;42.702;23.314;2023-07-28T04:14:19;19.10;61.50
20911;DHT22;10615;42.702;23.314;2023-07-28T04:15:20;19.30;61.10
20911;DHT22;10615;42.702;23.314;2023-07-28T04:16:20;19.50;60.80
20911;DHT22;10615;42.702;23.314;2023-07-28T04:17:21;19.80;60.50
20911;DHT22;10615;42.702;23.314;2023-07-28T04:18:22;20.30;59.80
20911;DHT22;10615;42.702;23.314;2023-07-28T04:19:23;20.60;58.70
20911;DHT22;10615;42.702;23.314;2023-07-28T04:20:24;20.80;58.10
20911;DHT22;10615;42.702;23.314;2023-07-28T04:21:25;21.10;57.30
20911;DHT22;10615;42.702;23.314;2023-07-28T04:22:26;21.50;56.70
20911;DHT22;10615;42.702;23.314;2023-07-28T04:23:27;21.90;56.20
20911;DHT22;10615;42.702;23.314;2023-07-28T04:24:27;22.10;55.10
20911;DHT22;10615;42.702;23.314;2023-07-28T04:25:28;22.40;54.20
20911;DHT22;10615;42.702;23.314;2023-07-28T04:26:29;22.70;53.40
20911;DHT22;10615;42.702;23.314;2023-07-28T04:27:29;23.00;52.90
20911;DHT22;10615;42.702;23.314;2023-07-28T04:28:30;23.10;52.20
20911;DHT22;10615;42.702;23.314;2023-07-28T04:29:30;23.30;51.90
20911;DHT22;10615;42.702;23.314;2023-07-28T04:30:31;23.60;51.40
20911;DHT22;10615;42.702;23.314;2023-07-28T04:31:32;23.90;50.80
20911;DHT22;10615;42.702;23.314;2023-07-28T04:32:33;24.20;50.20
20911;DHT22;10615;42.702;23.314;2023-07-28T04:33:33;24.50;49.50
20911;DHT22;10615;42.702;23.314;2023-07-28T04:34:34;24.80;48.70
20911;DHT22;10615;42.702;23.314;2023-07-28T04:35:35;25.00;47.70
20911;DHT22;10615;42.702;23.314;2023-07-28T04:36:35;25.20;47.30
20911;DHT22;10615;42.702;23.314;2023-07-28T04:37:36;25.40;46.90
20911;DHT22;10615;42.702;23.314;2023-07-28T04:39:38;26.00;45.50
20911;DHT22;10615;42.702;23.314;2023-07-28T04:40:38;26.20;45.40
20911;DHT22;10615;42.702;23.314;2023-07-28T04:41:39;26.50;45.00
20911;DHT22;10615;42.702;23.314;2023-07-28T04:42:40;27.00;44.30
20911;DHT22;10615;42.702;23.314;2023-07-28T04:43:40;27.50;43.60
20911;DHT22;10615;42.702;23.314;2023-07-28T04:44:41;27.80;42.60
20911;DHT22;10615;42.702;23.314;2023-07-28T04:45:44;28.20;41.90
20911;DHT22;10615;42.702;23.314;2023-07-28T04:46:45;28.50;41.20
20911;DHT22;10615;42.702;23.314;2023-07-28T04:47:48;29.10;40.50
20911;DHT22;10615;42.702;23.314;2023-07-28T04:48:48;29.60;39.80
20911;DHT22;10615;42.702;23.314;2023-07-28T04:49:49;30.10;38.80
20911;DHT22;10615;42.702;23.314;2023-07-28T04:50:50;30.50;38.00
20911;DHT22;10615;42.702;23.314;2023-07-28T04:51:50;31.00;37.30
20911;DHT22;10615;42.702;23.314;2023-07-28T04:52:52;31.30;36.10
20911;DHT22;10615;42.702;23.314;2023-07-28T04:53:53;31.80;35.60
20911;DHT22;10615;42.702;23.314;2023-07-28T04:54:53;32.60;34.80
20911;DHT22;10615;42.702;23.314;2023-07-28T04:55:54;33.30;33.80
20911;DHT22;10615;42.702;23.314;2023-07-28T04:56:55;33.80;32.70
20911;DHT22;10615;42.702;23.314;2023-07-28T04:57:56;34.40;32.00
20911;DHT22;10615;42.702;23.314;2023-07-28T04:58:56;35.10;31.30
20911;DHT22;10615;42.702;23.314;2023-07-28T04:59:59;35.90;30.40
20911;DHT22;10615;42.702;23.314;2023-07-28T05:00:59;36.30;29.40
20911;DHT22;10615;42.702;23.314;2023-07-28T05:02:00;36.50;28.80
20911;DHT22;10615;42.702;23.314;2023-07-28T05:03:01;36.90;28.60
20911;DHT22;10615;42.702;23.314;2023-07-28T05:04:01;37.30;28.10
20911;DHT22;10615;42.702;23.314;2023-07-28T05:05:02;37.70;27.70
20911;DHT22;10615;42.702;23.314;2023-07-28T05:06:03;38.10;27.50
20911;DHT22;10615;42.702;23.314;2023-07-28T05:07:05;38.60;27.00
20911;DHT22;10615;42.702;23.314;2023-07-28T05:08:06;38.80;26.60
20911;DHT22;10615;42.702;23.314;2023-07-28T05:09:06;38.80;26.30
20911;DHT22;10615;42.702;23.314;2023-07-28T05:10:07;38.50;26.30
20911;DHT22;10615;42.702;23.314;2023-07-28T05:11:08;38.10;26.30
20911;DHT22;10615;42.702;23.314;2023-07-28T05:12:09;37.50;26.20
20911;DHT22;10615;42.702;23.314;2023-07-28T05:13:10;36.90;26.40
20911;DHT22;10615;42.702;23.314;2023-07-28T05:14:10;36.20;26.60
20911;DHT22;10615;42.702;23.314;2023-07-28T05:15:13;35.70;27.10
20911;DHT22;10615;42.702;23.314;2023-07-28T05:16:14;35.30;27.40
20911;DHT22;10615;42.702;23.314;2023-07-28T05:17:14;34.80;27.80
20911;DHT22;10615;42.702;23.314;2023-07-28T05:18:15;34.40;28.10
20911;DHT22;10615;42.702;23.314;2023-07-28T05:19:16;34.10;28.50
20911;DHT22;10615;42.702;23.314;2023-07-28T05:20:16;34.00;28.80
20911;DHT22;10615;42.702;23.314;2023-07-28T05:21:17;34.10;28.90
20911;DHT22;10615;42.702;23.314;2023-07-28T05:22:18;34.50;28.90
20911;DHT22;10615;42.702;23.314;2023-07-28T05:23:19;35.30;28.90
20911;DHT22;10615;42.702;23.314;2023-07-28T05:24:19;36.20;28.50
20911;DHT22;10615;42.702;23.314;2023-07-28T05:25:20;37.20;28.20
20911;DHT22;10615;42.702;23.314;2023-07-28T05:26:21;38.20;27.60
20911;DHT22;10615;42.702;23.314;2023-07-28T05:27:21;39.10;26.90
20911;DHT22;10615;42.702;23.314;2023-07-28T05:28:22;40.10;26.30
20911;DHT22;10615;42.702;23.314;2023-07-28T05:30:24;41.60;24.60
20911;DHT22;10615;42.702;23.314;2023-07-28T05:31:24;42.50;24.70
20911;DHT22;10615;42.702;23.314;2023-07-28T05:32:25;43.30;24.10
20911;DHT22;10615;42.702;23.314;2023-07-28T05:33:25;44.00;23.40
20911;DHT22;10615;42.702;23.314;2023-07-28T05:34:26;44.50;23.00
20911;DHT22;10615;42.702;23.314;2023-07-28T05:35:27;45.50;21.70
20911;DHT22;10615;42.702;23.314;2023-07-28T05:36:28;45.70;22.00
20911;DHT22;10615;42.702;23.314;2023-07-28T05:37:29;46.00;21.60
20911;DHT22;10615;42.702;23.314;2023-07-28T05:38:29;46.40;21.40
20911;DHT22;10615;42.702;23.314;2023-07-28T05:39:30;46.70;21.10
20911;DHT22;10615;42.702;23.314;2023-07-28T05:40:31;47.20;21.00
20911;DHT22;10615;42.702;23.314;2023-07-28T05:41:32;47.60;20.70
20911;DHT22;10615;42.702;23.314;2023-07-28T05:42:32;47.90;20.50
20911;DHT22;10615;42.702;23.314;2023-07-28T05:43:33;48.90;19.40
20911;DHT22;10615;42.702;23.314;2023-07-28T05:44:34;48.90;19.70
20911;DHT22;10615;42.702;23.314;2023-07-28T05:45:35;49.10;19.50
20911;DHT22;10615;42.702;23.314;2023-07-28T05:46:35;49.20;19.40
20911;DHT22;10615;42.702;23.314;2023-07-28T05:47:36;49.40;19.20
20911;DHT22;10615;42.702;23.314;2023-07-28T05:48:37;49.60;19.00
20911;DHT22;10615;42.702;23.314;2023-07-28T05:49:37;49.80;18.90
20911;DHT22;10615;42.702;23.314;2023-07-28T05:50:38;49.70;18.70
20911;DHT22;10615;42.702;23.314;2023-07-28T05:51:39;50.10;18.70
20911;DHT22;10615;42.702;23.314;2023-07-28T05:52:40;50.20;18.50
20911;DHT22;10615;42.702;23.314;2023-07-28T05:53:41;50.20;18.40
20911;DHT22;10615;42.702;23.314;2023-07-28T05:54:41;50.50;18.30
20911;DHT22;10615;42.702;23.314;2023-07-28T05:55:42;50.50;18.20
20911;DHT22;10615;42.702;23.314;2023-07-28T05:56:43;50.20;18.10
20911;DHT22;10615;42.702;23.314;2023-07-28T05:57:44;50.30;18.30
20911;DHT22;10615;42.702;23.314;2023-07-28T05:58:46;50.50;18.20
20911;DHT22;10615;42.702;23.314;2023-07-28T05:59:47;50.40;18.10
20911;DHT22;10615;42.702;23.314;2023-07-28T06:00:47;50.50;18.10
20911;DHT22;10615;42.702;23.314;2023-07-28T06:01:48;50.50;18.00
20911;DHT22;10615;42.702;23.314;2023-07-28T06:02:49;51.00;18.00
20911;DHT22;10615;42.702;23.314;2023-07-28T06:03:50;51.50;17.20
20911;DHT22;10615;42.702;23.314;2023-07-28T06:04:53;51.40;17.60
20911;DHT22;10615;42.702;23.314;2023-07-28T06:05:53;51.80;17.60
20911;DHT22;10615;42.702;23.314;2023-07-28T06:06:54;52.00;17.30
20911;DHT22;10615;42.702;23.314;2023-07-28T06:07:55;52.20;17.30
20911;DHT22;10615;42.702;23.314;2023-07-28T06:08:55;52.40;17.20
20911;DHT22;10615;42.702;23.314;2023-07-28T06:09:56;52.50;17.10
20911;DHT22;10615;42.702;23.314;2023-07-28T06:10:57;52.40;17.10
20911;DHT22;10615;42.702;23.314;2023-07-28T06:11:58;52.60;17.10
20911;DHT22;10615;42.702;23.314;2023-07-28T06:12:58;53.10;17.00
20911;DHT22;10615;42.702;23.314;2023-07-28T06:13:59;53.50;16.80
20911;DHT22;10615;42.702;23.314;2023-07-28T06:15:00;53.50;16.50
20911;DHT22;10615;42.702;23.314;2023-07-28T06:16:00;53.70;16.50
20911;DHT22;10615;42.702;23.314;2023-07-28T06:17:01;53.70;16.50
20911;DHT22;10615;42.702;23.314;2023-07-28T06:18:02;53.80;16.40
20911;DHT22;10615;42.702;23.314;2023-07-28T06:19:03;54.10;15.70
20911;DHT22;10615;42.702;23.314;2023-07-28T06:20:05;54.10;16.20
20911;DHT22;10615;42.702;23.314;2023-07-28T06:21:06;54.20;16.10
20911;DHT22;10615;42.702;23.314;2023-07-28T06:22:07;54.10;16.00
20911;DHT22;10615;42.702;23.314;2023-07-28T06:23:07;54.30;16.00
20911;DHT22;10615;42.702;23.314;2023-07-28T06:24:08;54.70;16.10
20911;DHT22;10615;42.702;23.314;2023-07-28T06:25:09;54.70;15.90
20911;DHT22;10615;42.702;23.314;2023-07-28T06:26:09;54.80;15.90